sensor_id;sensor_type;location;lat;lon;timestamp;P1;durP1;ratioP1;P2;durP2;ratioP2
43118;SDS011;28729;49.838;8.650;2022-11-04T00:01:51;17.85;;;8.27;;
43118;SDS011;28729;49.838;8.650;2022-11-04T00:05:52;16.23;;;7.88;;
43118;SDS011;28729;49.838;8.650;2022-11-04T00:09:54;12.77;;;7.78;;
43118;SDS011;28729;49.838;8.650;2022-11-04T00:13:56;15.30;;;7.85;;
43118;SDS011;28729;49.838;8.650;2022-11-04T00:17:57;12.45;;;7.47;;
43118;SDS011;28729;49.838;8.650;2022-11-04T00:21:59;13.23;;;6.75;;
43118;SDS011;28729;49.838;8.650;2022-11-04T00:26:19;11.30;;;6.22;;
43118;SDS011;28729;49.838;8.650;2022-11-04T00:30:39;14.23;;;6.20;;
43118;SDS011;28729;49.838;8.650;2022-11-04T00:34:41;12.52;;;6.57;;
43118;SDS011;28729;49.838;8.650;2022-11-04T00:38:42;12.77;;;7.00;;
43118;SDS011;28729;49.838;8.650;2022-11-04T00:42:44;12.45;;;7.20;;
43118;SDS011;28729;49.838;8.650;2022-11-04T00:46:46;12.90;;;6.78;;
43118;SDS011;28729;49.838;8.650;2022-11-04T00:50:48;14.20;;;5.80;;
43118;SDS011;28729;49.838;8.650;2022-11-04T00:54:49;8.15;;;4.90;;
43118;SDS011;28729;49.838;8.650;2022-11-04T00:58:51;9.93;;;4.57;;
43118;SDS011;28729;49.838;8.650;2022-11-04T01:02:53;9.30;;;5.35;;
43118;SDS011;28729;49.838;8.650;2022-11-04T01:06:54;10.15;;;4.50;;
43118;SDS011;28729;49.838;8.650;2022-11-04T01:10:59;9.30;;;5.47;;
43118;SDS011;28729;49.838;8.650;2022-11-04T01:15:02;7.68;;;4.13;;
43118;SDS011;28729;49.838;8.650;2022-11-04T01:19:04;11.48;;;4.07;;
43118;SDS011;28729;49.838;8.650;2022-11-04T01:23:05;7.25;;;3.67;;
43118;SDS011;28729;49.838;8.650;2022-11-04T01:27:07;5.38;;;3.22;;
43118;SDS011;28729;49.838;8.650;2022-11-04T01:31:10;8.90;;;3.55;;
43118;SDS011;28729;49.838;8.650;2022-11-04T01:35:13;10.07;;;3.40;;
43118;SDS011;28729;49.838;8.650;2022-11-04T01:39:15;5.22;;;3.03;;
43118;SDS011;28729;49.838;8.650;2022-11-04T01:43:17;6.03;;;3.13;;
43118;SDS011;28729;49.838;8.650;2022-11-04T01:51:35;4.30;;;2.35;;
43118;SDS011;28729;49.838;8.650;2022-11-04T01:55:44;3.33;;;1.75;;
43118;SDS011;28729;49.838;8.650;2022-11-04T01:59:51;4.25;;;1.55;;
43118;SDS011;28729;49.838;8.650;2022-11-04T02:03:57;3.17;;;1.17;;
43118;SDS011;28729;49.838;8.650;2022-11-04T02:08:19;4.05;;;1.35;;
43118;SDS011;28729;49.838;8.650;2022-11-04T02:12:21;4.80;;;1.97;;
43118;SDS011;28729;49.838;8.650;2022-11-04T02:16:47;3.78;;;1.35;;
43118;SDS011;28729;49.838;8.650;2022-11-04T02:33:56;3.85;;;1.40;;
43118;SDS011;28729;49.838;8.650;2022-11-04T02:42:56;4.13;;;1.27;;
43118;SDS011;28729;49.838;8.650;2022-11-04T02:47:03;2.67;;;1.30;;
43118;SDS011;28729;49.838;8.650;2022-11-04T02:51:16;3.00;;;0.90;;
43118;SDS011;28729;49.838;8.650;2022-11-04T02:55:24;1.73;;;1.02;;
43118;SDS011;28729;49.838;8.650;2022-11-04T02:59:35;4.47;;;0.90;;
43118;SDS011;28729;49.838;8.650;2022-11-04T03:03:42;2.05;;;0.82;;
43118;SDS011;28729;49.838;8.650;2022-11-04T03:07:49;4.20;;;1.13;;
43118;SDS011;28729;49.838;8.650;2022-11-04T03:11:55;3.60;;;0.93;;
43118;SDS011;28729;49.838;8.650;2022-11-04T03:16:03;2.67;;;1.05;;
43118;SDS011;28729;49.838;8.650;2022-11-04T03:20:13;2.33;;;0.85;;
43118;SDS011;28729;49.838;8.650;2022-11-04T03:24:20;3.00;;;1.15;;
43118;SDS011;28729;49.838;8.650;2022-11-04T03:37:07;1.98;;;1.23;;
43118;SDS011;28729;49.838;8.650;2022-11-04T03:41:11;3.67;;;1.40;;
43118;SDS011;28729;49.838;8.650;2022-11-04T03:45:16;4.68;;;1.65;;
43118;SDS011;28729;49.838;8.650;2022-11-04T03:49:18;2.95;;;1.40;;
43118;SDS011;28729;49.838;8.650;2022-11-04T03:53:24;4.95;;;1.63;;
43118;SDS011;28729;49.838;8.650;2022-11-04T03:57:37;4.07;;;1.63;;
43118;SDS011;28729;49.838;8.650;2022-11-04T04:01:45;4.80;;;1.80;;
43118;SDS011;28729;49.838;8.650;2022-11-04T04:05:53;5.78;;;1.85;;
43118;SDS011;28729;49.838;8.650;2022-11-04T04:10:03;4.78;;;1.75;;
43118;SDS011;28729;49.838;8.650;2022-11-04T04:14:39;5.30;;;1.40;;
43118;SDS011;28729;49.838;8.650;2022-11-04T04:23:18;6.65;;;1.70;;
43118;SDS011;28729;49.838;8.650;2022-11-04T04:27:43;4.72;;;1.90;;
43118;SDS011;28729;49.838;8.650;2022-11-04T04:31:48;3.65;;;1.80;;
43118;SDS011;28729;49.838;8.650;2022-11-04T04:35:53;7.10;;;1.65;;
43118;SDS011;28729;49.838;8.650;2022-11-04T04:39:57;8.18;;;2.53;;
43118;SDS011;28729;49.838;8.650;2022-11-04T04:44:26;3.50;;;1.95;;
43118;SDS011;28729;49.838;8.650;2022-11-04T04:48:47;6.50;;;2.47;;
43118;SDS011;28729;49.838;8.650;2022-11-04T04:52:50;5.70;;;2.17;;
43118;SDS011;28729;49.838;8.650;2022-11-04T04:56:54;8.65;;;2.25;;
43118;SDS011;28729;49.838;8.650;2022-11-04T05:00:55;5.20;;;1.95;;
43118;SDS011;28729;49.838;8.650;2022-11-04T05:04:57;6.03;;;1.77;;
43118;SDS011;28729;49.838;8.650;2022-11-04T05:08:59;8.18;;;2.00;;
43118;SDS011;28729;49.838;8.650;2022-11-04T05:13:01;7.20;;;1.83;;
43118;SDS011;28729;49.838;8.650;2022-11-04T05:17:21;4.60;;;1.67;;
43118;SDS011;28729;49.838;8.650;2022-11-04T05:21:23;7.97;;;1.83;;
43118;SDS011;28729;49.838;8.650;2022-11-04T05:25:25;6.10;;;1.58;;
43118;SDS011;28729;49.838;8.650;2022-11-04T05:29:26;5.32;;;2.50;;
43118;SDS011;28729;49.838;8.650;2022-11-04T05:33:28;4.55;;;1.58;;
43118;SDS011;28729;49.838;8.650;2022-11-04T05:37:29;7.90;;;1.98;;
43118;SDS011;28729;49.838;8.650;2022-11-04T05:41:32;6.97;;;2.22;;
43118;SDS011;28729;49.838;8.650;2022-11-04T05:45:34;11.50;;;1.65;;
43118;SDS011;28729;49.838;8.650;2022-11-04T05:49:36;4.20;;;1.55;;
43118;SDS011;28729;49.838;8.650;2022-11-04T05:53:38;4.60;;;1.50;;
43118;SDS011;28729;49.838;8.650;2022-11-04T05:57:39;5.40;;;1.60;;
43118;SDS011;28729;49.838;8.650;2022-11-04T06:01:41;7.07;;;2.30;;
43118;SDS011;28729;49.838;8.650;2022-11-04T06:05:44;5.03;;;1.52;;
43118;SDS011;28729;49.838;8.650;2022-11-04T06:09:46;4.53;;;1.85;;
43118;SDS011;28729;49.838;8.650;2022-11-04T06:13:47;4.05;;;1.40;;
43118;SDS011;28729;49.838;8.650;2022-11-04T06:17:49;7.43;;;1.60;;
43118;SDS011;28729;49.838;8.650;2022-11-04T06:21:51;4.43;;;1.70;;
43118;SDS011;28729;49.838;8.650;2022-11-04T06:25:54;7.78;;;1.30;;
43118;SDS011;28729;49.838;8.650;2022-11-04T06:29:55;6.50;;;1.85;;
43118;SDS011;28729;49.838;8.650;2022-11-04T06:33:57;4.97;;;1.63;;
43118;SDS011;28729;49.838;8.650;2022-11-04T06:37:58;5.72;;;1.35;;
43118;SDS011;28729;49.838;8.650;2022-11-04T06:42:00;5.18;;;1.42;;
43118;SDS011;28729;49.838;8.650;2022-11-04T06:46:03;4.22;;;1.35;;
43118;SDS011;28729;49.838;8.650;2022-11-04T06:50:05;4.88;;;2.38;;
43118;SDS011;28729;49.838;8.650;2022-11-04T06:54:07;4.35;;;1.27;;
43118;SDS011;28729;49.838;8.650;2022-11-04T06:58:09;3.35;;;1.20;;
43118;SDS011;28729;49.838;8.650;2022-11-04T07:02:10;7.90;;;2.53;;
43118;SDS011;28729;49.838;8.650;2022-11-04T07:06:13;4.78;;;1.48;;
43118;SDS011;28729;49.838;8.650;2022-11-04T07:10:15;4.93;;;1.55;;
43118;SDS011;28729;49.838;8.650;2022-11-04T07:14:17;7.28;;;1.30;;
43118;SDS011;28729;49.838;8.650;2022-11-04T07:18:19;4.75;;;1.48;;
43118;SDS011;28729;49.838;8.650;2022-11-04T07:22:21;4.83;;;1.70;;
43118;SDS011;28729;49.838;8.650;2022-11-04T07:26:22;7.28;;;1.38;;
43118;SDS011;28729;49.838;8.650;2022-11-04T07:30:25;5.15;;;1.25;;
43118;SDS011;28729;49.838;8.650;2022-11-04T07:34:27;5.97;;;1.25;;
43118;SDS011;28729;49.838;8.650;2022-11-04T07:38:29;6.65;;;1.67;;
43118;SDS011;28729;49.838;8.650;2022-11-04T07:42:31;2.70;;;1.20;;
43118;SDS011;28729;49.838;8.650;2022-11-04T07:46:39;4.15;;;1.23;;
43118;SDS011;28729;49.838;8.650;2022-11-04T07:50:41;6.17;;;1.43;;
43118;SDS011;28729;49.838;8.650;2022-11-04T07:54:43;5.57;;;1.30;;
43118;SDS011;28729;49.838;8.650;2022-11-04T07:58:45;6.33;;;1.33;;
43118;SDS011;28729;49.838;8.650;2022-11-04T08:02:47;3.97;;;1.58;;
43118;SDS011;28729;49.838;8.650;2022-11-04T08:06:49;10.43;;;1.33;;
43118;SDS011;28729;49.838;8.650;2022-11-04T08:10:52;2.97;;;1.08;;
43118;SDS011;28729;49.838;8.650;2022-11-04T08:14:55;3.17;;;1.10;;
43118;SDS011;28729;49.838;8.650;2022-11-04T08:18:57;3.45;;;1.23;;
43118;SDS011;28729;49.838;8.650;2022-11-04T08:23:02;7.32;;;1.13;;
43118;SDS011;28729;49.838;8.650;2022-11-04T08:27:04;7.57;;;2.07;;
43118;SDS011;28729;49.838;8.650;2022-11-04T08:31:20;3.17;;;1.05;;
43118;SDS011;28729;49.838;8.650;2022-11-04T08:35:27;5.15;;;1.20;;
43118;SDS011;28729;49.838;8.650;2022-11-04T08:39:29;1.85;;;0.80;;
43118;SDS011;28729;49.838;8.650;2022-11-04T08:43:30;2.38;;;1.00;;
43118;SDS011;28729;49.838;8.650;2022-11-04T08:47:34;4.93;;;1.00;;
43118;SDS011;28729;49.838;8.650;2022-11-04T08:51:37;6.25;;;1.52;;
43118;SDS011;28729;49.838;8.650;2022-11-04T08:55:41;3.17;;;1.20;;
43118;SDS011;28729;49.838;8.650;2022-11-04T08:59:43;2.63;;;1.10;;
43118;SDS011;28729;49.838;8.650;2022-11-04T09:03:44;4.32;;;1.25;;
43118;SDS011;28729;49.838;8.650;2022-11-04T09:07:47;2.55;;;1.17;;
43118;SDS011;28729;49.838;8.650;2022-11-04T09:11:49;3.88;;;1.45;;
43118;SDS011;28729;49.838;8.650;2022-11-04T09:15:51;3.88;;;1.45;;
43118;SDS011;28729;49.838;8.650;2022-11-04T09:19:52;3.78;;;1.30;;
43118;SDS011;28729;49.838;8.650;2022-11-04T09:23:54;3.58;;;0.90;;
43118;SDS011;28729;49.838;8.650;2022-11-04T09:27:56;2.72;;;0.88;;
43118;SDS011;28729;49.838;8.650;2022-11-04T09:31:58;5.25;;;1.15;;
43118;SDS011;28729;49.838;8.650;2022-11-04T09:36:01;6.18;;;1.40;;
43118;SDS011;28729;49.838;8.650;2022-11-04T09:40:02;4.13;;;1.67;;
43118;SDS011;28729;49.838;8.650;2022-11-04T09:44:24;3.63;;;1.10;;
43118;SDS011;28729;49.838;8.650;2022-11-04T09:48:44;4.80;;;1.25;;
43118;SDS011;28729;49.838;8.650;2022-11-04T09:52:48;3.95;;;1.40;;
43118;SDS011;28729;49.838;8.650;2022-11-04T09:56:56;16.08;;;1.75;;
43118;SDS011;28729;49.838;8.650;2022-11-04T10:01:05;3.30;;;1.20;;
43118;SDS011;28729;49.838;8.650;2022-11-04T10:09:36;4.55;;;1.45;;
43118;SDS011;28729;49.838;8.650;2022-11-04T10:14:30;3.70;;;1.25;;
43118;SDS011;28729;49.838;8.650;2022-11-04T10:18:42;6.53;;;1.40;;
43118;SDS011;28729;49.838;8.650;2022-11-04T10:22:54;4.95;;;1.80;;
43118;SDS011;28729;49.838;8.650;2022-11-04T10:32:37;3.90;;;1.40;;
43118;SDS011;28729;49.838;8.650;2022-11-04T10:36:47;4.72;;;1.50;;
43118;SDS011;28729;49.838;8.650;2022-11-04T10:40:53;9.20;;;1.50;;
43118;SDS011;28729;49.838;8.650;2022-11-04T10:44:55;4.97;;;1.00;;
43118;SDS011;28729;49.838;8.650;2022-11-04T10:49:02;3.13;;;1.15;;
43118;SDS011;28729;49.838;8.650;2022-11-04T10:53:18;3.78;;;1.30;;
43118;SDS011;28729;49.838;8.650;2022-11-04T10:57:26;6.18;;;1.45;;
43118;SDS011;28729;49.838;8.650;2022-11-04T11:01:32;4.10;;;1.30;;
43118;SDS011;28729;49.838;8.650;2022-11-04T11:05:35;6.45;;;1.30;;
43118;SDS011;28729;49.838;8.650;2022-11-04T11:13:55;6.07;;;1.20;;
43118;SDS011;28729;49.838;8.650;2022-11-04T11:17:59;4.75;;;1.17;;
43118;SDS011;28729;49.838;8.650;2022-11-04T11:26:32;4.10;;;1.13;;
43118;SDS011;28729;49.838;8.650;2022-11-04T11:34:44;2.75;;;1.42;;
43118;SDS011;28729;49.838;8.650;2022-11-04T11:43:06;4.18;;;1.00;;
43118;SDS011;28729;49.838;8.650;2022-11-04T11:51:33;4.40;;;1.40;;
43118;SDS011;28729;49.838;8.650;2022-11-04T12:00:16;6.55;;;1.65;;
43118;SDS011;28729;49.838;8.650;2022-11-04T12:04:41;6.78;;;1.40;;
43118;SDS011;28729;49.838;8.650;2022-11-04T12:09:07;4.03;;;1.50;;
43118;SDS011;28729;49.838;8.650;2022-11-04T12:13:38;6.72;;;1.58;;
43118;SDS011;28729;49.838;8.650;2022-11-04T12:17:49;4.85;;;1.50;;
43118;SDS011;28729;49.838;8.650;2022-11-04T12:21:58;5.25;;;1.65;;
43118;SDS011;28729;49.838;8.650;2022-11-04T12:30:13;5.75;;;1.40;;
43118;SDS011;28729;49.838;8.650;2022-11-04T12:39:13;6.45;;;1.67;;
43118;SDS011;28729;49.838;8.650;2022-11-04T13:01:33;3.85;;;2.13;;
43118;SDS011;28729;49.838;8.650;2022-11-04T13:09:50;5.07;;;1.42;;
43118;SDS011;28729;49.838;8.650;2022-11-04T13:18:22;8.18;;;1.67;;
43118;SDS011;28729;49.838;8.650;2022-11-04T13:22:33;5.47;;;1.75;;
43118;SDS011;28729;49.838;8.650;2022-11-04T13:26:37;4.47;;;1.85;;
43118;SDS011;28729;49.838;8.650;2022-11-04T13:35:07;4.35;;;1.38;;
43118;SDS011;28729;49.838;8.650;2022-11-04T13:43:58;5.07;;;1.65;;
43118;SDS011;28729;49.838;8.650;2022-11-04T13:48:04;4.60;;;1.85;;
43118;SDS011;28729;49.838;8.650;2022-11-04T13:52:12;5.55;;;2.33;;
43118;SDS011;28729;49.838;8.650;2022-11-04T13:56:36;5.53;;;1.83;;
43118;SDS011;28729;49.838;8.650;2022-11-04T14:00:38;5.20;;;1.70;;
43118;SDS011;28729;49.838;8.650;2022-11-04T14:04:41;6.63;;;2.15;;
43118;SDS011;28729;49.838;8.650;2022-11-04T14:22:03;11.30;;;2.05;;
43118;SDS011;28729;49.838;8.650;2022-11-04T14:26:14;5.95;;;1.90;;
43118;SDS011;28729;49.838;8.650;2022-11-04T14:30:30;7.60;;;2.28;;
43118;SDS011;28729;49.838;8.650;2022-11-04T14:34:38;7.70;;;1.30;;
43118;SDS011;28729;49.838;8.650;2022-11-04T14:38:43;4.68;;;1.30;;
43118;SDS011;28729;49.838;8.650;2022-11-04T14:42:55;8.35;;;1.38;;
43118;SDS011;28729;49.838;8.650;2022-11-04T14:46:59;5.47;;;1.52;;
43118;SDS011;28729;49.838;8.650;2022-11-04T14:51:26;6.18;;;1.70;;
43118;SDS011;28729;49.838;8.650;2022-11-04T14:55:30;6.18;;;1.90;;
43118;SDS011;28729;49.838;8.650;2022-11-04T14:59:51;10.48;;;1.95;;
43118;SDS011;28729;49.838;8.650;2022-11-04T15:04:27;4.82;;;1.80;;
43118;SDS011;28729;49.838;8.650;2022-11-04T15:08:33;3.28;;;1.30;;
43118;SDS011;28729;49.838;8.650;2022-11-04T15:12:42;9.02;;;1.73;;
43118;SDS011;28729;49.838;8.650;2022-11-04T15:16:54;4.55;;;1.50;;
43118;SDS011;28729;49.838;8.650;2022-11-04T15:20:58;3.35;;;1.45;;
43118;SDS011;28729;49.838;8.650;2022-11-04T15:25:03;9.27;;;1.77;;
43118;SDS011;28729;49.838;8.650;2022-11-04T15:29:09;7.40;;;1.70;;
43118;SDS011;28729;49.838;8.650;2022-11-04T15:33:14;6.05;;;1.70;;
43118;SDS011;28729;49.838;8.650;2022-11-04T15:37:18;4.88;;;1.40;;
43118;SDS011;28729;49.838;8.650;2022-11-04T15:41:23;4.70;;;1.42;;
43118;SDS011;28729;49.838;8.650;2022-11-04T15:49:48;6.93;;;2.20;;
43118;SDS011;28729;49.838;8.650;2022-11-04T15:53:53;12.88;;;3.70;;
43118;SDS011;28729;49.838;8.650;2022-11-04T15:58:10;5.80;;;3.38;;
43118;SDS011;28729;49.838;8.650;2022-11-04T16:02:21;10.85;;;2.85;;
43118;SDS011;28729;49.838;8.650;2022-11-04T16:06:36;9.15;;;2.92;;
43118;SDS011;28729;49.838;8.650;2022-11-04T16:10:39;10.38;;;2.90;;
43118;SDS011;28729;49.838;8.650;2022-11-04T16:14:49;6.93;;;3.10;;
43118;SDS011;28729;49.838;8.650;2022-11-04T16:18:53;7.03;;;2.70;;
43118;SDS011;28729;49.838;8.650;2022-11-04T16:23:00;9.32;;;3.38;;
43118;SDS011;28729;49.838;8.650;2022-11-04T16:27:07;7.32;;;2.30;;
43118;SDS011;28729;49.838;8.650;2022-11-04T16:35:24;4.93;;;2.35;;
43118;SDS011;28729;49.838;8.650;2022-11-04T16:39:27;9.25;;;2.75;;
43118;SDS011;28729;49.838;8.650;2022-11-04T16:43:29;12.60;;;3.00;;
43118;SDS011;28729;49.838;8.650;2022-11-04T16:47:38;5.93;;;2.72;;
43118;SDS011;28729;49.838;8.650;2022-11-04T16:51:40;7.65;;;2.63;;
43118;SDS011;28729;49.838;8.650;2022-11-04T16:55:42;6.55;;;2.75;;
43118;SDS011;28729;49.838;8.650;2022-11-04T16:59:44;5.07;;;2.00;;
43118;SDS011;28729;49.838;8.650;2022-11-04T17:03:46;10.18;;;3.22;;
43118;SDS011;28729;49.838;8.650;2022-11-04T17:07:50;10.27;;;3.30;;
43118;SDS011;28729;49.838;8.650;2022-11-04T17:11:56;8.68;;;2.90;;
43118;SDS011;28729;49.838;8.650;2022-11-04T17:15:58;7.15;;;3.13;;
43118;SDS011;28729;49.838;8.650;2022-11-04T17:20:00;6.72;;;3.63;;
43118;SDS011;28729;49.838;8.650;2022-11-04T17:24:02;8.95;;;4.90;;
43118;SDS011;28729;49.838;8.650;2022-11-04T17:28:05;6.90;;;3.00;;
43118;SDS011;28729;49.838;8.650;2022-11-04T17:32:07;6.97;;;3.35;;
43118;SDS011;28729;49.838;8.650;2022-11-04T17:36:13;10.85;;;3.40;;
43118;SDS011;28729;49.838;8.650;2022-11-04T17:40:18;9.50;;;3.90;;
43118;SDS011;28729;49.838;8.650;2022-11-04T17:44:21;6.50;;;3.42;;
43118;SDS011;28729;49.838;8.650;2022-11-04T17:48:22;8.95;;;3.78;;
43118;SDS011;28729;49.838;8.650;2022-11-04T17:52:24;6.13;;;3.75;;
43118;SDS011;28729;49.838;8.650;2022-11-04T18:00:29;5.93;;;3.55;;
43118;SDS011;28729;49.838;8.650;2022-11-04T18:04:30;6.55;;;3.50;;
43118;SDS011;28729;49.838;8.650;2022-11-04T18:08:32;12.00;;;4.00;;
43118;SDS011;28729;49.838;8.650;2022-11-04T18:12:34;7.88;;;3.72;;
43118;SDS011;28729;49.838;8.650;2022-11-04T18:16:42;6.30;;;3.88;;
43118;SDS011;28729;49.838;8.650;2022-11-04T18:20:45;9.90;;;4.03;;
43118;SDS011;28729;49.838;8.650;2022-11-04T18:24:47;6.72;;;4.53;;
43118;SDS011;28729;49.838;8.650;2022-11-04T18:28:49;9.07;;;4.15;;
43118;SDS011;28729;49.838;8.650;2022-11-04T18:32:51;7.70;;;3.78;;
43118;SDS011;28729;49.838;8.650;2022-11-04T18:36:53;11.45;;;4.47;;
43118;SDS011;28729;49.838;8.650;2022-11-04T18:40:56;9.73;;;4.70;;
43118;SDS011;28729;49.838;8.650;2022-11-04T18:44:58;9.20;;;4.18;;
43118;SDS011;28729;49.838;8.650;2022-11-04T18:48:59;12.13;;;4.75;;
43118;SDS011;28729;49.838;8.650;2022-11-04T18:53:01;8.13;;;4.30;;
43118;SDS011;28729;49.838;8.650;2022-11-04T18:57:03;11.68;;;4.60;;
43118;SDS011;28729;49.838;8.650;2022-11-04T19:01:27;10.13;;;4.57;;
43118;SDS011;28729;49.838;8.650;2022-11-04T19:05:29;8.32;;;4.78;;
43118;SDS011;28729;49.838;8.650;2022-11-04T19:09:30;8.27;;;4.63;;
43118;SDS011;28729;49.838;8.650;2022-11-04T19:13:51;9.25;;;4.60;;
43118;SDS011;28729;49.838;8.650;2022-11-04T19:17:54;9.63;;;4.57;;
43118;SDS011;28729;49.838;8.650;2022-11-04T19:21:58;12.35;;;5.07;;
43118;SDS011;28729;49.838;8.650;2022-11-04T19:26:07;12.02;;;5.78;;
43118;SDS011;28729;49.838;8.650;2022-11-04T19:30:10;12.02;;;5.10;;
43118;SDS011;28729;49.838;8.650;2022-11-04T19:34:12;10.40;;;5.10;;
43118;SDS011;28729;49.838;8.650;2022-11-04T19:38:14;11.98;;;5.00;;
43118;SDS011;28729;49.838;8.650;2022-11-04T19:42:17;11.55;;;5.05;;
43118;SDS011;28729;49.838;8.650;2022-11-04T19:46:38;8.82;;;4.88;;
43118;SDS011;28729;49.838;8.650;2022-11-04T19:50:41;9.60;;;4.65;;
43118;SDS011;28729;49.838;8.650;2022-11-04T19:54:48;10.23;;;5.97;;
43118;SDS011;28729;49.838;8.650;2022-11-04T19:58:49;13.60;;;5.85;;
43118;SDS011;28729;49.838;8.650;2022-11-04T20:02:51;11.85;;;6.15;;
43118;SDS011;28729;49.838;8.650;2022-11-04T20:06:52;11.70;;;6.38;;
43118;SDS011;28729;49.838;8.650;2022-11-04T20:10:55;11.57;;;6.68;;
43118;SDS011;28729;49.838;8.650;2022-11-04T20:14:56;12.65;;;6.22;;
43118;SDS011;28729;49.838;8.650;2022-11-04T20:19:00;10.85;;;6.25;;
43118;SDS011;28729;49.838;8.650;2022-11-04T20:23:04;14.63;;;6.78;;
43118;SDS011;28729;49.838;8.650;2022-11-04T20:27:07;11.20;;;5.80;;
43118;SDS011;28729;49.838;8.650;2022-11-04T20:31:13;12.25;;;6.57;;
43118;SDS011;28729;49.838;8.650;2022-11-04T20:35:20;10.38;;;5.38;;
43118;SDS011;28729;49.838;8.650;2022-11-04T20:39:22;11.60;;;5.75;;
43118;SDS011;28729;49.838;8.650;2022-11-04T20:43:23;13.55;;;6.18;;
43118;SDS011;28729;49.838;8.650;2022-11-04T20:47:26;14.18;;;6.30;;
43118;SDS011;28729;49.838;8.650;2022-11-04T20:51:31;10.88;;;5.88;;
43118;SDS011;28729;49.838;8.650;2022-11-04T20:55:37;14.57;;;6.60;;
43118;SDS011;28729;49.838;8.650;2022-11-04T20:59:40;12.55;;;6.32;;
43118;SDS011;28729;49.838;8.650;2022-11-04T21:03:41;13.27;;;6.63;;
43118;SDS011;28729;49.838;8.650;2022-11-04T21:07:43;13.20;;;6.70;;
43118;SDS011;28729;49.838;8.650;2022-11-04T21:11:45;18.42;;;7.15;;
43118;SDS011;28729;49.838;8.650;2022-11-04T21:15:51;13.77;;;6.68;;
43118;SDS011;28729;49.838;8.650;2022-11-04T21:19:53;14.35;;;7.50;;
43118;SDS011;28729;49.838;8.650;2022-11-04T21:23:56;14.55;;;7.75;;
43118;SDS011;28729;49.838;8.650;2022-11-04T21:28:02;14.73;;;8.15;;
43118;SDS011;28729;49.838;8.650;2022-11-04T21:32:04;16.48;;;7.82;;
43118;SDS011;28729;49.838;8.650;2022-11-04T21:36:06;14.48;;;7.75;;
43118;SDS011;28729;49.838;8.650;2022-11-04T21:40:11;13.98;;;7.05;;
43118;SDS011;28729;49.838;8.650;2022-11-04T21:44:12;15.18;;;8.13;;
43118;SDS011;28729;49.838;8.650;2022-11-04T21:48:14;13.43;;;7.18;;
43118;SDS011;28729;49.838;8.650;2022-11-04T21:52:16;13.10;;;7.00;;
43118;SDS011;28729;49.838;8.650;2022-11-04T21:56:18;12.73;;;7.10;;
43118;SDS011;28729;49.838;8.650;2022-11-04T22:00:25;16.80;;;7.93;;
43118;SDS011;28729;49.838;8.650;2022-11-04T22:04:27;11.47;;;7.17;;
43118;SDS011;28729;49.838;8.650;2022-11-04T22:08:29;18.73;;;7.95;;
43118;SDS011;28729;49.838;8.650;2022-11-04T22:12:31;14.35;;;7.75;;
43118;SDS011;28729;49.838;8.650;2022-11-04T22:16:34;16.40;;;7.97;;
43118;SDS011;28729;49.838;8.650;2022-11-04T22:20:38;14.40;;;7.63;;
43118;SDS011;28729;49.838;8.650;2022-11-04T22:24:40;17.70;;;8.00;;
43118;SDS011;28729;49.838;8.650;2022-11-04T22:28:42;15.57;;;7.88;;
43118;SDS011;28729;49.838;8.650;2022-11-04T22:32:44;15.68;;;7.60;;
43118;SDS011;28729;49.838;8.650;2022-11-04T22:36:45;14.93;;;9.00;;
43118;SDS011;28729;49.838;8.650;2022-11-04T22:40:56;14.32;;;8.20;;
43118;SDS011;28729;49.838;8.650;2022-11-04T22:44:59;16.03;;;7.67;;
43118;SDS011;28729;49.838;8.650;2022-11-04T22:49:01;15.77;;;8.48;;
43118;SDS011;28729;49.838;8.650;2022-11-04T22:53:03;16.60;;;8.57;;
43118;SDS011;28729;49.838;8.650;2022-11-04T22:57:04;16.15;;;8.70;;
43118;SDS011;28729;49.838;8.650;2022-11-04T23:01:10;13.27;;;8.27;;
43118;SDS011;28729;49.838;8.650;2022-11-04T23:05:14;16.23;;;9.02;;
43118;SDS011;28729;49.838;8.650;2022-11-04T23:09:16;14.75;;;8.05;;
43118;SDS011;28729;49.838;8.650;2022-11-04T23:13:18;18.38;;;8.90;;
43118;SDS011;28729;49.838;8.650;2022-11-04T23:17:39;15.75;;;8.80;;
43118;SDS011;28729;49.838;8.650;2022-11-04T23:21:59;17.13;;;8.65;;
43118;SDS011;28729;49.838;8.650;2022-11-04T23:26:19;14.80;;;8.50;;
43118;SDS011;28729;49.838;8.650;2022-11-04T23:30:28;16.95;;;8.43;;
43118;SDS011;28729;49.838;8.650;2022-11-04T23:34:32;15.65;;;8.77;;
43118;SDS011;28729;49.838;8.650;2022-11-04T23:38:52;19.55;;;9.30;;
43118;SDS011;28729;49.838;8.650;2022-11-04T23:42:54;16.20;;;8.82;;
43118;SDS011;28729;49.838;8.650;2022-11-04T23:46:56;15.43;;;8.73;;
43118;SDS011;28729;49.838;8.650;2022-11-04T23:51:16;14.57;;;8.45;;
43118;SDS011;28729;49.838;8.650;2022-11-04T23:55:36;20.35;;;9.85;;
43118;SDS011;28729;49.838;8.650;2022-11-04T23:59:56;18.58;;;9.27;;
